Pleasant Grove, UT (84062)

4:04 PM MDT on August 04, 2015 (GMT -0600)
Cedar Hills - South | | Change Station
CLOSE
Current Station
Personal Weather Station
Location: Cedar Hills, UT
Elevation: 4969 ft
Nearby Weather Stations

Elev 4969 ft 40.40 °N, 111.74 °W | Updated 5 seconds ago

Clear
Clear
86.3 °F
Feels Like 83 °F
N
0.0
Wind Variable Wind from SW
Gusts 0.0 mph

Today
High -- | Low -- °F
--% Chance of Precip.
Yesterday
High -- | Low -- °F
Precip. -- in
6:27 AM 8:38 PM
Waning Gibbous, 74% visible
Pressure 30.06 in
Visibility 15.0 miles
Clouds Few 10000 ft
Heat Index 83 °F
Dew Point 43 °F
Humidity 22%
Rainfall 0.00 in
Snow Depth Not available.
UV 8 out of 12
Pollen 6.30 out of 12
Air Quality Not available.
Flu Activity Not available.
METAR KPVU 042151Z 00000KT 15SM FEW100 31/10 A3006

More Conditions Fewer Conditions

Pressure 30.06 in
Visibility 15.0 miles
Clouds Few 10000 ft
Heat Index 83 °F
Dew Point 43 °F
Humidity 22%
Rainfall 0.00 in
Snow Depth Not available.
UV 8 out of 12
Pollen 6.30 out of 12
Air Quality Not available.
Flu Activity Not available.
METAR KPVU 042151Z 00000KT 15SM FEW100 31/10 A3006

More Conditions Fewer Conditions

10-Day Weather Forecast

×

Almanac

Astronomy

Aug. 04, 2015 Rise Set
Actual Time
Civil Twilight
Nautical Twilight
Astronomical Twilight
Moon
Length of Visible Light
Length of Day
Tomorrow will be .
, % of the Moon is Illuminated

Today's Extremes

State Highs State Lows

Community

WunderPhotos

Upload Photos

1,844,001 photos uploaded!

WunderBlogs® & News

Nearby

Air Quality

  Air Quality AQ Index Pollutant
Not available.

Snow Depth

Station Depth Elevation

Earthquake Activity

City Distance Mag. Time & Date
Minimum magnitude displayed is 2.5.

Coastal Water Temperatures

Place Temperature

Stations

Nearby Weather Stations

Station Location Temp. Windchill Dew Point Humidity Wind Precip. Elev Updated Type